Triathlon Hénin Beaumont 2023

Epreuve sélectionnée:


S Homme - Résultats Scratch

Filtre:

Partants Général Equipe Top 5



Recherche:

N° dossard
Nom
Club
S Homme - Classement arrivée
Clt Athlète Nat. Club Temps Sexe Cat Nat Velo CaP
1 227 MERCIRIS Nathan METZ TRIATHLON 00:53:15 M (1e) Junior (1e) 00:09:41 (1e) 00:27:57 (10e) 00:15:38 (8e) Partagez votre performance
2 253 GALLET Mathieu TRIATHLON CLUB DE DOUAI 00:53:34 M (2e) Senior (1e) 00:10:12 (7e) 00:28:06 (11e) 00:15:17 (1e) Partagez votre performance
3 184 FOUTREIN Pierre COTE D OPALE TRIATHLON CALAIS SAINT OMER 00:53:37 M (3e) Senior (2e) 00:10:48 (18e) 00:27:22 (2e) 00:15:27 (4e) Partagez votre performance
4 198 MAHIEUX Arthur GRAVELINES TRIATHLON 00:53:40 M (4e) Senior (3e) 00:10:02 (5e) 00:28:12 (13e) 00:15:26 (2e) Partagez votre performance
5 279 GUERIN DECOOL Victor VILLENEUVE D ASCQ TRIATHLON 00:53:50 M (5e) Junior (2e) 00:10:47 (17e) 00:27:37 (5e) 00:15:27 (3e) Partagez votre performance
6 246 DEGRAEVE Rowan TEAM NISSA TRIATHLON 00:54:08 M (6e) Senior (4e) 00:09:47 (4e) 00:28:32 (19e) 00:15:50 (9e) Partagez votre performance
7 168 CACHEUX Alexis CAMBRAI TRIATHLON 00:54:18 M (7e) Senior (5e) 00:10:50 (19e) 00:27:33 (3e) 00:15:56 (12e) Partagez votre performance
8 260 LACROIX Hippolyte TRIATHLON CLUB DE LIEVIN 00:54:33 M (8e) Cadet (1e) 00:09:46 (3e) 00:28:33 (20e) 00:16:16 (19e) Partagez votre performance
9 281 MISSER Quentin VILLENEUVE D ASCQ TRIATHLON 00:54:51 M (9e) Senior (6e) 00:09:43 (2e) 00:28:36 (21e) 00:16:33 (22e) Partagez votre performance
10 277 ADJAVON Eloi VILLENEUVE D ASCQ TRIATHLON 00:54:56 M (10e) Senior (7e) 00:10:52 (20e) 00:28:31 (18e) 00:15:34 (5e) Partagez votre performance
11 186 LEJAY Hugo COTE D OPALE TRIATHLON CALAIS SAINT OMER 00:55:01 M (11e) Senior (8e) 00:10:24 (10e) 00:27:57 (9e) 00:16:41 (27e) Partagez votre performance
12 194 HENEMAN Guillaume GRAVELINES TRIATHLON 00:55:11 M (12e) Senior (9e) 00:10:28 (11e) 00:27:53 (8e) 00:16:51 (30e) Partagez votre performance
13 218 VIERTAIX Antoine LYS CALAIS TRIATHLON 00:55:14 M (13e) Senior (10e) 00:10:36 (14e) 00:28:48 (24e) 00:15:51 (10e) Partagez votre performance
14 188 NOPPE Arthur COTE D OPALE TRIATHLON CALAIS SAINT OMER 00:55:24 M (14e) Junior (3e) 00:11:15 (30e) 00:28:07 (12e) 00:16:03 (14e) Partagez votre performance
15 257 DUPLESSIER Hugo TRIATHLON CLUB DE LIEVIN 00:55:28 M (15e) Cadet (2e) 00:11:08 (27e) 00:28:26 (17e) 00:15:56 (11e) Partagez votre performance
16 191 DILLIES Robin GRAVELINES TRIATHLON 00:56:00 M (16e) Senior (11e) 00:10:40 (15e) 00:29:15 (31e) 00:16:06 (16e) Partagez votre performance
17 185 GODART Léo COTE D OPALE TRIATHLON CALAIS SAINT OMER 00:56:08 M (17e) Cadet (3e) 00:11:07 (26e) 00:28:18 (14e) 00:16:44 (28e) Partagez votre performance
18 159 BRIZION Vincent BEAUVAIS TRIATHLON 00:56:18 M (18e) Senior (12e) 00:12:19 (55e) 00:28:25 (16e) 00:15:34 (6e) Partagez votre performance
19 197 MAHASSINE Yasser GRAVELINES TRIATHLON 00:56:29 M (19e) Senior (13e) 00:10:56 (21e) 00:29:58 (46e) 00:15:36 (7e) Partagez votre performance
20 290 GITEAU Clément WASQUEHAL TRIATHLON 00:56:53 M (20e) Senior (14e) 00:11:39 (34e) 00:29:01 (27e) 00:16:14 (17e) Partagez votre performance
21 211 PORTALA Thomas LILLE TRIATHLON 00:56:57 M (21e) Senior (15e) 00:11:08 (28e) 00:28:24 (15e) 00:17:26 (42e) Partagez votre performance
22 283 SENOTIER Kevin VILLENEUVE D ASCQ TRIATHLON 00:57:01 M (22e) Master (1e) 00:10:13 (8e) 00:29:19 (35e) 00:17:29 (43e) Partagez votre performance
23 207 LANSELLE Louis LILLE TRIATHLON 00:57:11 M (23e) Junior (4e) 00:11:53 (40e) 00:28:45 (23e) 00:16:33 (24e) Partagez votre performance
24 160 BROISSART Etienne BEAUVAIS TRIATHLON 00:57:14 M (24e) Senior (16e) 00:11:54 (41e) 00:29:07 (28e) 00:16:14 (18e) Partagez votre performance
25 183 CHAMBELLAND Cyril COTE D OPALE TRIATHLON CALAIS SAINT OMER 00:57:19 M (25e) Master (2e) 00:11:38 (33e) 00:27:49 (6e) 00:17:53 (50e) Partagez votre performance
26 180 MARCOUX Vincent COMPIEGNE TRIATHLON 00:57:27 M (26e) Senior (17e) 00:11:54 (42e) 00:28:48 (25e) 00:16:46 (29e) Partagez votre performance
27 392 PERCHEVAL Simon BEAUVAIS TRIATHLON 00:57:28 M (27e) Cadet (4e) 00:00:00 (0) 00:00:00 (0) 00:00:00 (0) Partagez votre performance
28 182 MICHOTTE Olivier COMPIEGNE TRIATHLON 00:57:34 M (28e) Senior (18e) 00:10:22 (9e) 00:29:18 (32e) 00:17:55 (51e) Partagez votre performance
29 252 DUVINAGE Robin TRIATHLON CLUB DE DOUAI 00:57:43 M (29e) Senior (19e) 00:12:48 (63e) 00:28:52 (26e) 00:16:03 (15e) Partagez votre performance
30 393 LEBRUN Tom VALENCIENNES TRIATHLON 00:58:00 M (30e) Cadet (5e) 00:00:00 (0) 00:00:00 (0) 00:00:00 (0) Partagez votre performance
31 161 DE OLIVEIRA Mathias BEAUVAIS TRIATHLON 00:58:00 M (31e) Senior (20e) 00:11:30 (32e) 00:29:11 (29e) 00:17:20 (39e) Partagez votre performance
32 280 JOUBERT Foucauld VILLENEUVE D ASCQ TRIATHLON 00:58:01 M (32e) Cadet (6e) 00:10:44 (16e) 00:29:35 (41e) 00:17:42 (47e) Partagez votre performance
33 165 VOTTE Antoine BEAUVAIS TRIATHLON 00:58:07 M (33e) Senior (21e) 00:11:43 (37e) 00:27:52 (7e) 00:18:33 (67e) Partagez votre performance
34 263 TOURSEL Loic TRIATHLON CLUB DE LIEVIN 00:58:12 M (34e) Junior (5e) 00:10:36 (13e) 00:30:17 (57e) 00:17:20 (38e) Partagez votre performance
35 275 MOULIN Arthur VALENCIENNES TRIATHLON 00:58:17 M (35e) Junior (6e) 00:10:33 (12e) 00:29:59 (49e) 00:17:46 (48e) Partagez votre performance
36 258 FERREIRA Jehro TRIATHLON CLUB DE LIEVIN 00:58:38 M (36e) Cadet (7e) 00:12:19 (54e) 00:29:13 (30e) 00:17:08 (35e) Partagez votre performance
37 156 ANTY MANIER Robin BEAUVAIS TRIATHLON 00:58:39 M (37e) Cadet (8e) 00:12:20 (56e) 00:29:18 (33e) 00:17:02 (34e) Partagez votre performance
38 230 WITTE Ignacio POIX TRIATHLON 00:58:39 M (38e) Cadet (9e) 00:11:59 (44e) 00:29:29 (38e) 00:17:13 (36e) Partagez votre performance
39 202 BEAREE Antoine LILLE TRIATHLON 00:58:50 M (39e) Senior (22e) 00:12:55 (66e) 00:29:58 (48e) 00:15:58 (13e) Partagez votre performance
40 163 DEWANCKELE Matthieu BEAUVAIS TRIATHLON 00:58:52 M (40e) Master (3e) 00:12:02 (45e) 00:29:55 (45e) 00:16:56 (32e) Partagez votre performance
41 243 MENTION Edouard SC ABBEVILLE TRIATHLON NATATION 00:58:55 M (41e) Senior (23e) 00:11:40 (35e) 00:00:00 (0) 00:00:00 (0) Partagez votre performance
42 264 CORTIER Clement TRIATHLON LITTORAL 59 00:58:56 M (42e) Senior (24e) 00:11:06 (25e) 00:30:30 (62e) 00:17:21 (40e) Partagez votre performance
43 187 LOUCHAERT Emmanuel COTE D OPALE TRIATHLON CALAIS SAINT OMER 00:59:02 M (43e) Master (4e) 00:10:05 (6e) 00:30:39 (66e) 00:18:19 (60e) Partagez votre performance
44 294 BARIL Alexandre AMIENS TRIATHLON 00:59:18 M (44e) Senior (25e) 00:12:21 (57e) 00:30:31 (64e) 00:16:27 (21e) Partagez votre performance
45 162 DE OLIVEIRA Sacha BEAUVAIS TRIATHLON 00:59:22 M (45e) Cadet (10e) 00:12:05 (46e) 00:30:42 (67e) 00:16:37 (26e) Partagez votre performance
46 174 BERNARD Guillaume COMPIEGNE TRIATHLON 00:59:27 M (46e) Senior (26e) 00:13:06 (69e) 00:29:29 (39e) 00:16:53 (31e) Partagez votre performance
47 259 HOULGATTE Louwenn TRIATHLON CLUB DE LIEVIN 00:59:47 M (47e) Cadet (11e) 00:12:38 (61e) 00:28:45 (22e) 00:18:26 (62e) Partagez votre performance
48 153 GANTIER Baptiste AMIENS TRIATHLON 01:00:20 M (48e) Senior (27e) 00:13:42 (77e) 00:30:05 (51e) 00:16:33 (23e) Partagez votre performance
49 154 SAVARD Lucas AMIENS TRIATHLON 01:00:29 M (49e) Senior (28e) 00:13:19 (72e) 00:29:50 (44e) 00:17:20 (37e) Partagez votre performance
50 157 BONNIEC Louis BEAUVAIS TRIATHLON 01:00:30 M (50e) Cadet (12e) 00:11:04 (23e) 00:29:19 (34e) 00:20:09 (88e) Partagez votre performance
51 291 REGNAULT Maxime WASQUEHAL TRIATHLON 01:00:36 M (51e) Junior (7e) 00:13:54 (79e) 00:29:44 (42e) 00:16:59 (33e) Partagez votre performance
52 209 LOUVET Lucas LILLE TRIATHLON 01:00:39 M (52e) Senior (29e) 00:11:51 (39e) 00:30:19 (58e) 00:18:30 (66e) Partagez votre performance
53 241 DEBROUCKE Francois SC ABBEVILLE TRIATHLON NATATION 01:00:42 M (53e) Master (5e) 00:12:17 (53e) 00:30:24 (59e) 00:18:02 (54e) Partagez votre performance
54 178 DUBRAC Victor COMPIEGNE TRIATHLON 01:00:49 M (54e) Cadet (13e) 00:11:57 (43e) 00:29:48 (43e) 00:19:05 (75e) Partagez votre performance
55 229 PILLON Nicolas POIX TRIATHLON 01:00:51 M (55e) Master (6e)